Time;durP1;ratioP1;P1;durP2;ratioP2;P2;SDS_P1;SDS_P2;PMS_P1;PMS_P2;Temp;Humidity;BMP_temperature;BMP_pressure;BME280_temperature;BME280_humidity;BME280_pressure;Samples;Min_cycle;Max_cycle;Signal;HPM_P1;HPM_P2
2021/08/10 00:01:10;;;;;;;1.33;1.23;;;24.40;45.40;;;;;;5051912;28;20275;-66
2021/08/10 00:03:36;;;;;;;1.83;1.33;;;24.40;45.50;;;;;;5051661;28;20237;-66
2021/08/10 00:06:02;;;;;;;1.50;1.40;;;24.30;45.30;;;;;;5051834;28;20643;-66
2021/08/10 00:08:29;;;;;;;1.60;1.40;;;24.30;45.30;;;;;;5050681;28;20237;-66
2021/08/10 00:10:56;;;;;;;1.40;1.30;;;24.30;45.40;;;;;;5051639;28;20224;-66
2021/08/10 00:13:22;;;;;;;1.85;1.75;;;24.30;45.30;;;;;;5051539;28;20507;-66
2021/08/10 00:15:49;;;;;;;1.63;1.20;;;24.30;45.30;;;;;;5051098;28;20264;-67
2021/08/10 00:18:15;;;;;;;1.90;1.20;;;24.30;45.30;;;;;;5051620;28;20248;-66
2021/08/10 00:20:42;;;;;;;1.50;1.40;;;24.40;45.40;;;;;;5050704;28;20675;-67
2021/08/10 00:23:08;;;;;;;1.42;1.33;;;24.30;45.30;;;;;;5051150;28;20244;-66
2021/08/10 00:25:35;;;;;;;1.63;1.50;;;24.30;45.40;;;;;;5050517;28;20329;-66
2021/08/10 00:28:01;;;;;;;1.42;1.30;;;24.30;45.30;;;;;;5051977;28;20400;-66
2021/08/10 00:30:28;;;;;;;1.70;1.60;;;24.30;45.30;;;;;;5050890;28;20237;-66
2021/08/10 00:32:54;;;;;;;1.50;1.40;;;24.30;45.40;;;;;;5051364;28;20201;-66
2021/08/10 00:35:21;;;;;;;1.40;1.30;;;24.30;45.30;;;;;;5050522;28;20226;-67
2021/08/10 00:37:47;;;;;;;1.52;1.38;;;24.30;45.40;;;;;;5051444;28;20237;-67
2021/08/10 00:40:13;;;;;;;1.40;1.30;;;24.30;45.40;;;;;;5051147;28;20421;-67
2021/08/10 00:42:40;;;;;;;2.47;1.55;;;24.30;45.40;;;;;;5050864;28;20229;-66
2021/08/10 00:45:06;;;;;;;1.50;1.30;;;24.30;45.30;;;;;;5048515;28;20308;-67
2021/08/10 00:47:33;;;;;;;2.83;1.42;;;24.30;45.40;;;;;;5051375;28;20269;-67
2021/08/10 00:49:59;;;;;;;1.60;1.50;;;24.30;45.40;;;;;;5051104;28;20252;-66
2021/08/10 00:52:26;;;;;;;1.45;1.27;;;24.30;45.40;;;;;;5051138;28;20285;-67
2021/08/10 00:54:52;;;;;;;1.20;1.10;;;24.30;45.40;;;;;;5050066;28;20252;-67
2021/08/10 00:57:19;;;;;;;1.52;1.40;;;24.30;45.40;;;;;;5051090;28;20628;-66
2021/08/10 00:59:45;;;;;;;1.30;1.20;;;24.30;45.40;;;;;;5050527;28;20238;-66
2021/08/10 01:02:12;;;;;;;1.35;1.25;;;24.30;45.40;;;;;;5049792;28;20285;-66
2021/08/10 01:04:38;;;;;;;1.50;1.40;;;24.30;45.40;;;;;;5051227;28;20655;-67
2021/08/10 01:07:05;;;;;;;1.48;1.30;;;24.30;45.40;;;;;;5050591;28;20234;-66
2021/08/10 01:09:31;;;;;;;1.40;1.30;;;24.30;45.40;;;;;;5050948;28;20202;-66
2021/08/10 01:11:58;;;;;;;2.60;1.20;;;24.30;45.40;;;;;;5050726;28;20229;-66
2021/08/10 01:14:24;;;;;;;1.50;1.20;;;24.30;45.40;;;;;;5049715;28;20257;-67
2021/08/10 01:16:50;;;;;;;1.30;1.20;;;24.30;45.40;;;;;;5049944;28;20249;-66
2021/08/10 01:19:17;;;;;;;2.10;1.75;;;24.30;46.10;;;;;;5050656;28;20737;-67
2021/08/10 01:21:44;;;;;;;1.33;1.23;;;24.30;45.40;;;;;;5050597;28;20205;-67
2021/08/10 01:24:11;;;;;;;1.40;1.30;;;24.30;45.40;;;;;;5051088;28;20253;-67
2021/08/10 01:26:37;;;;;;;1.92;1.50;;;24.30;45.50;;;;;;5049118;28;20264;-67
2021/08/10 01:29:04;;;;;;;1.35;1.25;;;24.30;45.50;;;;;;5050598;28;20236;-66
2021/08/10 01:31:30;;;;;;;1.30;1.20;;;24.30;45.50;;;;;;5043107;28;20746;-67
2021/08/10 01:33:57;;;;;;;1.88;1.48;;;24.30;46.10;;;;;;5050585;28;20256;-66
2021/08/10 01:36:23;;;;;;;1.25;1.17;;;24.30;45.50;;;;;;5053875;28;20256;-66
2021/08/10 01:38:50;;;;;;;1.70;1.60;;;24.30;46.10;;;;;;5054818;28;20248;-66
2021/08/10 01:41:16;;;;;;;1.30;1.20;;;24.30;45.50;;;;;;5053985;28;20268;-66
2021/08/10 01:43:43;;;;;;;1.83;1.70;;;24.30;45.50;;;;;;5054186;28;20289;-66
2021/08/10 01:46:09;;;;;;;1.40;1.30;;;24.30;45.50;;;;;;5054446;28;20304;-67
2021/08/10 01:48:35;;;;;;;1.25;1.15;;;24.30;45.50;;;;;;5052859;28;20669;-67
2021/08/10 01:51:02;;;;;;;1.40;1.30;;;24.30;45.50;;;;;;5052592;28;20233;-67
2021/08/10 01:53:28;;;;;;;2.20;1.70;;;24.30;45.60;;;;;;5054418;28;20241;-66
2021/08/10 01:55:56;;;;;;;1.40;1.30;;;24.30;45.50;;;;;;5052369;28;20306;-67
2021/08/10 01:58:23;;;;;;;2.40;1.40;;;24.30;45.60;;;;;;5054727;28;20202;-67
2021/08/10 02:00:49;;;;;;;1.42;1.33;;;24.30;45.60;;;;;;5053935;28;20292;-66
2021/08/10 02:03:16;;;;;;;1.90;1.48;;;24.30;45.60;;;;;;5054294;28;20240;-66
2021/08/10 02:05:42;;;;;;;1.83;1.60;;;24.30;45.60;;;;;;5053040;28;20628;-67
2021/08/10 02:08:09;;;;;;;2.35;1.40;;;24.30;45.60;;;;;;5054047;28;20320;-67
2021/08/10 02:10:35;;;;;;;1.50;1.40;;;24.30;46.30;;;;;;5053696;28;20623;-67
2021/08/10 02:13:02;;;;;;;1.60;1.50;;;24.30;45.60;;;;;;5047638;28;20321;-67
2021/08/10 02:15:28;;;;;;;2.58;1.40;;;24.30;45.70;;;;;;5043240;28;20301;-67
2021/08/10 02:17:55;;;;;;;1.52;1.42;;;24.30;45.60;;;;;;5054091;28;20288;-67
2021/08/10 02:20:21;;;;;;;1.33;1.23;;;24.30;45.70;;;;;;5053310;28;20658;-67
2021/08/10 02:22:47;;;;;;;1.48;1.38;;;24.30;45.60;;;;;;5054187;28;20229;-67
2021/08/10 02:25:14;;;;;;;2.08;1.30;;;24.30;45.70;;;;;;5051970;28;20327;-67
2021/08/10 02:27:40;;;;;;;1.35;1.25;;;24.30;45.70;;;;;;5054029;28;20745;-66
2021/08/10 02:30:07;;;;;;;1.45;1.35;;;24.30;45.70;;;;;;5053268;28;20226;-67
2021/08/10 02:32:33;;;;;;;1.30;1.20;;;24.30;45.70;;;;;;5054344;28;20241;-66
2021/08/10 02:35:00;;;;;;;1.42;1.30;;;24.30;45.70;;;;;;5052794;28;20304;-67
2021/08/10 02:37:26;;;;;;;1.90;1.42;;;24.30;45.70;;;;;;5053721;28;20285;-67
2021/08/10 02:39:53;;;;;;;1.75;1.40;;;24.30;45.70;;;;;;5052928;28;20241;-67
2021/08/10 02:42:19;;;;;;;1.40;1.30;;;24.30;45.70;;;;;;5054067;28;20300;-67
2021/08/10 02:44:46;;;;;;;1.50;1.40;;;24.30;45.70;;;;;;5051660;28;20213;-67
2021/08/10 02:47:13;;;;;;;1.48;1.35;;;24.30;45.70;;;;;;5051989;28;20257;-67
2021/08/10 02:49:39;;;;;;;1.50;1.40;;;24.30;45.80;;;;;;5051721;28;20296;-67
2021/08/10 02:52:05;;;;;;;2.58;1.20;;;24.30;45.80;;;;;;5052903;28;20604;-67
2021/08/10 02:54:32;;;;;;;1.45;1.30;;;24.30;45.70;;;;;;5051706;28;20274;-67
2021/08/10 02:56:58;;;;;;;1.48;1.38;;;24.30;45.80;;;;;;5052830;28;20295;-66
2021/08/10 02:59:25;;;;;;;1.52;1.42;;;24.30;45.80;;;;;;5051168;28;20734;-67
2021/08/10 03:01:51;;;;;;;2.35;1.40;;;24.30;45.80;;;;;;5052602;28;20236;-67
2021/08/10 03:04:18;;;;;;;1.52;1.30;;;24.30;45.80;;;;;;5052446;28;20229;-67
2021/08/10 03:06:44;;;;;;;1.60;1.25;;;24.30;45.80;;;;;;5052903;28;20281;-67
2021/08/10 03:09:11;;;;;;;1.75;1.23;;;24.30;45.80;;;;;;5052666;28;20229;-67
2021/08/10 03:11:39;;;;;;;1.42;1.33;;;24.30;45.90;;;;;;5052574;28;20199;-67
2021/08/10 03:14:05;;;;;;;1.40;1.30;;;24.30;45.90;;;;;;5052678;28;20217;-67
2021/08/10 03:16:32;;;;;;;1.30;1.20;;;24.30;45.90;;;;;;5052323;28;20281;-67
2021/08/10 03:18:58;;;;;;;2.10;1.33;;;24.30;45.90;;;;;;5052076;28;20285;-67
2021/08/10 03:21:24;;;;;;;1.35;1.25;;;24.30;45.90;;;;;;5052462;28;20607;-67
2021/08/10 03:23:51;;;;;;;1.30;1.20;;;24.30;45.80;;;;;;5052553;28;20312;-67
2021/08/10 03:26:17;;;;;;;1.27;1.17;;;24.30;45.90;;;;;;5051632;28;20237;-67
2021/08/10 03:28:44;;;;;;;1.48;1.38;;;24.30;45.90;;;;;;5052192;28;20737;-67
2021/08/10 03:31:10;;;;;;;1.23;1.13;;;24.30;45.90;;;;;;5049599;28;20284;-67
2021/08/10 03:33:37;;;;;;;1.30;1.20;;;24.30;45.90;;;;;;5049512;28;20348;-67
2021/08/10 03:36:03;;;;;;;1.30;1.20;;;24.30;46.00;;;;;;5051119;28;20244;-67
2021/08/10 03:38:30;;;;;;;1.23;1.13;;;24.30;46.00;;;;;;5052410;28;20305;-67
2021/08/10 03:40:56;;;;;;;1.38;1.20;;;24.30;45.90;;;;;;5052726;28;20233;-67
2021/08/10 03:43:23;;;;;;;1.48;1.20;;;24.30;46.00;;;;;;5052049;28;20279;-67
2021/08/10 03:45:49;;;;;;;1.40;1.30;;;24.30;46.00;;;;;;5051488;28;20236;-67
2021/08/10 03:48:16;;;;;;;1.30;1.20;;;24.30;46.00;;;;;;5051699;28;20317;-67
2021/08/10 03:50:42;;;;;;;1.45;1.20;;;24.30;46.00;;;;;;5050755;28;20264;-67
2021/08/10 03:53:09;;;;;;;1.40;1.30;;;24.30;46.00;;;;;;5051119;28;20202;-67
2021/08/10 03:55:35;;;;;;;1.20;1.10;;;24.30;46.00;;;;;;5051150;28;20291;-67
2021/08/10 03:58:01;;;;;;;1.63;1.40;;;24.30;46.00;;;;;;5052251;28;20545;-67
2021/08/10 04:00:28;;;;;;;1.45;1.30;;;24.30;46.00;;;;;;5051446;28;20229;-67
2021/08/10 04:02:54;;;;;;;1.42;1.33;;;24.30;46.10;;;;;;5052123;28;20244;-66
2021/08/10 04:05:21;;;;;;;1.83;1.30;;;24.30;46.00;;;;;;5051980;28;20222;-67
2021/08/10 04:07:47;;;;;;;1.17;1.10;;;24.30;46.00;;;;;;5051462;28;20264;-67
2021/08/10 04:10:14;;;;;;;1.55;1.20;;;24.30;46.00;;;;;;5051994;28;20260;-67
2021/08/10 04:12:40;;;;;;;2.65;1.70;;;24.30;46.00;;;;;;5051761;28;20237;-67
2021/08/10 04:15:07;;;;;;;1.38;1.23;;;24.30;46.10;;;;;;5051625;28;20253;-65
2021/08/10 04:17:33;;;;;;;2.42;1.33;;;24.30;46.00;;;;;;5051312;28;20740;-66
2021/08/10 04:20:00;;;;;;;1.73;1.30;;;24.30;46.00;;;;;;5051737;28;20229;-67
2021/08/10 04:22:26;;;;;;;1.30;1.20;;;24.30;46.20;;;;;;5050427;28;20283;-67
2021/08/10 04:24:53;;;;;;;1.17;1.10;;;24.30;46.40;;;;;;5048463;28;20720;-67
2021/08/10 04:27:19;;;;;;;1.95;1.15;;;24.30;46.40;;;;;;5035883;28;20313;-67
2021/08/10 04:29:46;;;;;;;1.60;1.10;;;24.30;46.40;;;;;;5051132;28;20236;-67
2021/08/10 04:32:12;;;;;;;1.30;1.20;;;24.30;46.50;;;;;;5052255;28;20248;-66
2021/08/10 04:34:39;;;;;;;1.50;1.40;;;24.30;46.40;;;;;;5050670;28;20662;-67
2021/08/10 04:37:05;;;;;;;1.30;1.20;;;24.30;46.50;;;;;;5051431;28;20245;-67
2021/08/10 04:39:31;;;;;;;1.20;1.10;;;24.30;46.40;;;;;;5051580;28;20194;-66
2021/08/10 04:41:58;;;;;;;1.75;1.15;;;24.30;46.40;;;;;;5050943;28;20229;-67
2021/08/10 04:44:24;;;;;;;2.33;1.40;;;24.30;46.40;;;;;;5049498;28;20272;-66
2021/08/10 04:46:51;;;;;;;2.28;1.30;;;24.30;46.40;;;;;;5051563;28;20205;-66
2021/08/10 04:49:17;;;;;;;1.30;1.20;;;24.30;46.40;;;;;;5051452;28;20272;-66
2021/08/10 04:51:44;;;;;;;1.58;1.30;;;24.30;46.40;;;;;;5050294;28;20240;-67
2021/08/10 04:54:11;;;;;;;1.35;1.25;;;24.30;46.40;;;;;;5049576;28;20316;-67
2021/08/10 04:56:38;;;;;;;2.83;1.63;;;24.30;46.40;;;;;;5050335;28;20202;-67
2021/08/10 04:59:04;;;;;;;1.30;1.20;;;24.30;46.40;;;;;;5050826;28;20234;-66
2021/08/10 05:01:31;;;;;;;1.48;1.38;;;24.30;46.40;;;;;;5050346;28;20232;-66
2021/08/10 05:03:57;;;;;;;2.50;1.23;;;24.30;46.30;;;;;;5050834;28;20264;-67
2021/08/10 05:06:23;;;;;;;1.23;1.13;;;24.30;46.40;;;;;;5050124;28;20293;-66
2021/08/10 05:08:50;;;;;;;1.50;1.40;;;24.30;46.40;;;;;;5050890;28;20288;-67
2021/08/10 05:11:16;;;;;;;1.60;1.50;;;24.30;46.30;;;;;;5050772;28;20304;-66
2021/08/10 05:13:43;;;;;;;1.27;1.20;;;24.30;46.40;;;;;;5050369;28;20257;-66
2021/08/10 05:16:09;;;;;;;1.35;1.25;;;24.30;46.30;;;;;;5050704;28;20252;-67
2021/08/10 05:18:36;;;;;;;1.38;1.25;;;24.20;46.30;;;;;;5046103;28;20194;-66
2021/08/10 05:21:02;;;;;;;1.42;1.23;;;24.30;46.30;;;;;;5036771;28;20721;-67
2021/08/10 05:23:29;;;;;;;1.40;1.30;;;24.30;46.30;;;;;;5051018;28;20264;-67
2021/08/10 05:25:55;;;;;;;1.30;1.10;;;24.20;46.20;;;;;;5044567;28;20244;-67
2021/08/10 05:28:22;;;;;;;1.65;1.20;;;24.30;46.30;;;;;;5051110;28;20388;-66
2021/08/10 05:30:48;;;;;;;2.17;1.30;;;24.30;46.30;;;;;;5050013;28;20634;-67
2021/08/10 05:33:15;;;;;;;1.23;1.13;;;24.30;46.30;;;;;;5042080;28;20265;-67
2021/08/10 05:35:41;;;;;;;1.30;1.20;;;24.30;46.30;;;;;;5047999;28;20260;-66
2021/08/10 05:38:08;;;;;;;1.40;1.30;;;24.30;46.30;;;;;;5034535;28;20563;-67
2021/08/10 05:40:34;;;;;;;1.23;1.10;;;24.30;46.30;;;;;;5049986;28;20233;-64
2021/08/10 05:43:00;;;;;;;1.25;1.13;;;24.30;46.20;;;;;;5051141;28;20245;-67
2021/08/10 05:45:27;;;;;;;2.60;1.33;;;24.30;46.10;;;;;;5050084;28;20596;-66
2021/08/10 05:47:53;;;;;;;1.67;1.17;;;24.30;46.20;;;;;;5049573;28;20261;-67
2021/08/10 05:50:20;;;;;;;1.42;1.30;;;24.30;46.30;;;;;;5048937;28;20290;-67
2021/08/10 05:52:46;;;;;;;1.50;1.20;;;24.30;46.40;;;;;;5049519;28;20248;-66
2021/08/10 05:55:13;;;;;;;3.63;1.30;;;24.30;46.40;;;;;;5049138;28;20248;-66
2021/08/10 05:57:39;;;;;;;1.52;1.42;;;24.30;46.40;;;;;;5049568;28;20233;-66
2021/08/10 06:00:06;;;;;;;1.58;1.40;;;24.30;46.40;;;;;;5050203;28;20229;-66
2021/08/10 06:02:32;;;;;;;2.15;1.15;;;24.30;46.40;;;;;;5050618;28;20724;-66
2021/08/10 06:04:59;;;;;;;1.52;1.20;;;24.30;46.50;;;;;;5049062;28;20308;-67
2021/08/10 06:07:25;;;;;;;1.60;1.40;;;24.30;46.40;;;;;;5049860;28;20241;-66
2021/08/10 06:09:52;;;;;;;1.38;1.13;;;24.30;46.40;;;;;;5049952;28;20677;-66
2021/08/10 06:12:18;;;;;;;1.77;0.95;;;24.30;46.40;;;;;;5050445;28;20240;-66
2021/08/10 06:14:45;;;;;;;1.60;1.23;;;24.30;46.30;;;;;;5049091;28;20367;-66
2021/08/10 06:17:11;;;;;;;1.85;1.20;;;24.30;46.40;;;;;;5049561;28;20202;-66
2021/08/10 06:19:38;;;;;;;2.55;1.17;;;24.30;46.30;;;;;;5039643;28;20292;-66
2021/08/10 06:22:04;;;;;;;1.33;1.23;;;24.30;46.40;;;;;;5053715;28;20233;-66
2021/08/10 06:24:31;;;;;;;1.40;1.30;;;24.30;46.30;;;;;;5052968;28;20709;-66
2021/08/10 06:26:57;;;;;;;2.17;1.55;;;24.30;46.30;;;;;;5053061;28;20590;-66
2021/08/10 06:29:24;;;;;;;2.08;1.58;;;24.30;46.30;;;;;;5053993;28;20312;-66
2021/08/10 06:31:50;;;;;;;1.38;1.27;;;24.30;46.30;;;;;;5053437;28;20237;-66
2021/08/10 06:34:17;;;;;;;1.35;1.25;;;24.30;46.30;;;;;;5052680;28;20280;-66
2021/08/10 06:36:43;;;;;;;1.48;1.38;;;24.30;46.30;;;;;;5053428;28;20244;-66
2021/08/10 06:39:10;;;;;;;1.00;1.00;;;24.30;46.20;;;;;;5052595;28;20256;-66
2021/08/10 06:41:36;;;;;;;1.30;1.20;;;24.30;46.30;;;;;;5053262;28;20257;-66
2021/08/10 06:44:03;;;;;;;2.70;1.33;;;24.30;46.30;;;;;;5052509;28;20249;-66
2021/08/10 06:46:30;;;;;;;1.30;1.20;;;24.30;46.20;;;;;;5052598;28;20202;-66
2021/08/10 06:48:57;;;;;;;1.25;1.15;;;24.30;46.20;;;;;;5052645;28;20256;-66
2021/08/10 06:51:23;;;;;;;1.40;1.30;;;24.30;46.20;;;;;;5052453;28;20588;-66
2021/08/10 06:53:50;;;;;;;1.33;1.23;;;24.30;46.30;;;;;;5053216;28;20321;-66
2021/08/10 06:56:16;;;;;;;2.88;1.27;;;24.30;46.30;;;;;;5050579;28;20234;-67
2021/08/10 06:58:43;;;;;;;2.88;1.63;;;24.30;46.20;;;;;;5051636;28;20206;-66
2021/08/10 07:01:09;;;;;;;1.27;1.15;;;24.30;46.30;;;;;;5052671;28;20279;-66
2021/08/10 07:03:36;;;;;;;1.42;1.33;;;24.30;46.20;;;;;;5053146;28;20747;-66
2021/08/10 07:06:02;;;;;;;1.30;1.20;;;24.30;46.20;;;;;;5051978;28;20197;-66
2021/08/10 07:08:29;;;;;;;1.48;1.10;;;24.30;46.20;;;;;;5052110;28;20336;-66
2021/08/10 07:10:55;;;;;;;1.48;1.30;;;24.30;46.30;;;;;;5052844;28;20237;-66
2021/08/10 07:13:21;;;;;;;2.28;1.40;;;24.30;46.20;;;;;;5051948;28;20276;-66
2021/08/10 07:15:48;;;;;;;2.38;1.67;;;24.30;46.20;;;;;;5051796;28;20248;-63
2021/08/10 07:18:14;;;;;;;2.17;1.40;;;24.30;46.20;;;;;;5049198;28;20236;-66
2021/08/10 07:20:41;;;;;;;1.50;1.40;;;24.30;46.00;;;;;;5051698;28;20233;-63
2021/08/10 07:23:07;;;;;;;6.18;1.60;;;24.30;46.00;;;;;;5052696;28;20221;-58
2021/08/10 07:25:34;;;;;;;1.90;1.35;;;24.40;47.30;;;;;;5050541;28;20206;-57
2021/08/10 07:28:00;;;;;;;2.65;1.40;;;24.50;46.50;;;;;;5050966;28;20238;-59
2021/08/10 07:30:27;;;;;;;1.95;1.20;;;24.50;46.50;;;;;;5048862;28;20236;-59
2021/08/10 07:32:53;;;;;;;2.28;1.40;;;24.50;47.10;;;;;;5049999;28;20249;-62
2021/08/10 07:35:20;;;;;;;3.15;1.40;;;24.50;46.70;;;;;;5050515;28;20202;-60
2021/08/10 07:37:47;;;;;;;7.38;1.85;;;24.50;46.50;;;;;;5050637;28;20249;-61
2021/08/10 07:40:14;;;;;;;5.50;2.10;;;24.50;46.50;;;;;;5050735;28;20311;-56
2021/08/10 07:42:41;;;;;;;7.03;1.95;;;24.50;46.80;;;;;;5051178;28;20217;-63
2021/08/10 07:45:07;;;;;;;7.95;2.15;;;24.50;47.50;;;;;;5051326;28;20269;-63
2021/08/10 07:47:34;;;;;;;8.05;2.30;;;24.60;49.20;;;;;;5051971;28;20293;-62
2021/08/10 07:50:00;;;;;;;6.93;2.35;;;24.60;48.60;;;;;;5050886;28;20600;-61
2021/08/10 07:52:26;;;;;;;9.43;2.65;;;24.60;49.70;;;;;;5050778;28;20237;-60
2021/08/10 07:54:53;;;;;;;6.22;2.38;;;24.60;49.90;;;;;;5049457;28;20245;-62
2021/08/10 07:57:19;;;;;;;10.63;3.28;;;24.50;49.50;;;;;;5050951;28;20237;-62
2021/08/10 07:59:46;;;;;;;9.02;2.97;;;24.60;50.40;;;;;;5052014;28;20235;-61
2021/08/10 08:02:12;;;;;;;12.20;3.03;;;24.50;49.60;;;;;;5049996;28;20292;-61
2021/08/10 08:04:39;;;;;;;8.27;3.10;;;24.60;50.30;;;;;;5048770;28;20635;-62
2021/08/10 08:07:05;;;;;;;4.75;2.60;;;24.40;49.00;;;;;;5045632;28;20285;-61
2021/08/10 08:09:32;;;;;;;4.97;2.70;;;23.50;45.30;;;;;;5051471;28;20272;-62
2021/08/10 08:11:58;;;;;;;4.90;2.60;;;23.70;48.00;;;;;;5051852;28;20618;-61
2021/08/10 08:14:25;;;;;;;8.73;2.33;;;24.00;48.30;;;;;;5050399;28;20253;-63
2021/08/10 08:16:51;;;;;;;8.52;3.00;;;24.10;49.10;;;;;;5050024;28;20233;-62
2021/08/10 08:19:18;;;;;;;3.72;2.50;;;24.20;49.60;;;;;;5051983;28;20808;-61
2021/08/10 08:21:44;;;;;;;6.63;2.47;;;24.30;50.00;;;;;;5051292;28;20237;-62
2021/08/10 08:24:11;;;;;;;6.50;2.38;;;24.30;50.50;;;;;;5046534;28;20249;-62
2021/08/10 08:26:37;;;;;;;6.03;2.60;;;24.30;50.20;;;;;;5049166;28;20256;-62
2021/08/10 08:29:04;;;;;;;5.32;2.30;;;24.30;50.60;;;;;;5050580;28;20312;-62
2021/08/10 08:31:30;;;;;;;4.45;2.38;;;24.40;49.70;;;;;;5050512;28;20302;-62
2021/08/10 08:33:57;;;;;;;3.60;2.30;;;24.40;50.10;;;;;;5047533;28;20688;-62
2021/08/10 08:36:23;;;;;;;3.90;2.20;;;24.40;49.70;;;;;;5049097;28;20237;-62
2021/08/10 08:38:49;;;;;;;4.13;2.00;;;24.40;49.60;;;;;;5050797;28;20202;-62
2021/08/10 08:41:16;;;;;;;5.70;2.20;;;24.40;50.10;;;;;;5050437;28;20285;-62
2021/08/10 08:43:42;;;;;;;2.80;2.00;;;24.40;50.40;;;;;;5038410;28;20313;-61
2021/08/10 08:46:09;;;;;;;4.68;2.35;;;24.40;50.40;;;;;;5047846;28;20232;-62
2021/08/10 08:48:35;;;;;;;4.03;2.00;;;24.40;49.70;;;;;;5049377;28;20908;-61
2021/08/10 08:51:02;;;;;;;3.47;2.25;;;24.40;50.20;;;;;;5050345;28;20201;-61
2021/08/10 08:53:28;;;;;;;5.55;2.17;;;24.40;50.00;;;;;;5049696;28;20255;-61
2021/08/10 08:55:55;;;;;;;5.57;2.35;;;24.40;49.80;;;;;;5045855;28;20233;-61
2021/08/10 08:58:21;;;;;;;2.15;1.92;;;24.40;50.40;;;;;;5049033;28;20226;-62
2021/08/10 09:00:48;;;;;;;5.30;1.85;;;24.40;50.30;;;;;;5049732;28;20236;-62
2021/08/10 09:03:14;;;;;;;4.00;2.03;;;24.40;50.60;;;;;;5049928;28;20666;-61
2021/08/10 09:05:41;;;;;;;3.15;2.03;;;24.40;50.10;;;;;;5050333;28;20232;-61
2021/08/10 09:08:07;;;;;;;3.78;1.70;;;24.40;50.00;;;;;;5049500;28;20234;-62
2021/08/10 09:10:34;;;;;;;3.03;1.80;;;24.40;50.30;;;;;;5048962;28;20324;-62
2021/08/10 09:13:00;;;;;;;3.22;1.50;;;24.40;50.60;;;;;;5049530;28;20304;-61
2021/08/10 09:15:27;;;;;;;3.45;1.90;;;24.40;50.00;;;;;;5049526;28;20209;-61
2021/08/10 09:17:53;;;;;;;2.63;1.35;;;24.40;50.00;;;;;;5051055;28;20237;-61
2021/08/10 09:20:20;;;;;;;4.07;1.70;;;24.50;50.40;;;;;;5046555;28;20289;-62
2021/08/10 09:22:46;;;;;;;2.42;1.55;;;24.40;50.40;;;;;;5049229;28;20222;-61
2021/08/10 09:25:13;;;;;;;1.88;1.63;;;24.40;49.80;;;;;;5050516;28;20237;-61
2021/08/10 09:27:39;;;;;;;2.05;1.50;;;24.40;50.00;;;;;;5050152;28;20233;-62
2021/08/10 09:30:06;;;;;;;3.42;2.13;;;24.50;49.80;;;;;;5049456;28;20709;-62
2021/08/10 09:32:32;;;;;;;5.88;1.80;;;24.50;50.10;;;;;;5048857;28;20328;-63
2021/08/10 09:34:59;;;;;;;3.95;1.70;;;24.50;49.80;;;;;;5049671;28;20289;-63
2021/08/10 09:37:25;;;;;;;1.95;1.80;;;24.50;49.70;;;;;;5048705;28;20344;-63
2021/08/10 09:39:52;;;;;;;5.88;2.00;;;24.50;49.90;;;;;;5046528;28;20717;-63
2021/08/10 09:42:18;;;;;;;3.47;2.00;;;24.50;49.40;;;;;;5047390;28;20272;-63
2021/08/10 09:44:45;;;;;;;3.13;2.00;;;24.50;50.30;;;;;;5049926;28;20226;-63
2021/08/10 09:47:11;;;;;;;1.98;1.73;;;24.50;50.30;;;;;;5047322;28;20232;-63
2021/08/10 09:49:38;;;;;;;2.58;1.85;;;24.40;50.20;;;;;;5049395;28;20268;-63
2021/08/10 09:52:04;;;;;;;2.15;1.95;;;24.40;50.30;;;;;;5049691;28;20260;-63
2021/08/10 09:54:31;;;;;;;2.90;1.58;;;24.40;50.20;;;;;;5050294;28;20252;-63
2021/08/10 09:56:59;;;;;;;2.15;1.88;;;24.50;50.50;;;;;;5054202;28;20248;-63
2021/08/10 09:59:26;;;;;;;4.72;2.10;;;24.50;50.40;;;;;;5054910;28;20343;-63
2021/08/10 10:01:54;;;;;;;4.10;2.08;;;24.40;50.40;;;;;;5054584;28;20611;-63
2021/08/10 10:04:21;;;;;;;3.00;1.90;;;24.40;50.40;;;;;;5054120;28;20292;-63
2021/08/10 10:06:47;;;;;;;2.25;1.98;;;24.40;50.70;;;;;;5053846;28;20234;-63
2021/08/10 10:09:14;;;;;;;2.10;1.80;;;24.40;50.40;;;;;;5054051;28;20218;-63
2021/08/10 10:11:40;;;;;;;3.33;2.05;;;24.40;50.40;;;;;;5054309;28;20281;-62
2021/08/10 10:14:07;;;;;;;1.90;1.52;;;24.40;50.90;;;;;;5054736;28;20249;-62
2021/08/10 10:16:33;;;;;;;5.00;2.20;;;24.40;50.30;;;;;;5053428;28;20600;-62
2021/08/10 10:19:00;;;;;;;3.00;2.20;;;24.40;50.40;;;;;;5054348;28;20267;-62
2021/08/10 10:21:26;;;;;;;1.95;1.70;;;24.40;50.30;;;;;;5054103;28;20732;-62
2021/08/10 10:23:53;;;;;;;2.95;2.00;;;24.40;50.30;;;;;;5054436;28;20229;-62
2021/08/10 10:26:19;;;;;;;2.80;1.95;;;24.50;50.20;;;;;;5053299;28;20260;-62
2021/08/10 10:28:46;;;;;;;3.88;1.80;;;24.40;50.00;;;;;;5054101;28;20629;-62
2021/08/10 10:31:12;;;;;;;1.85;1.70;;;24.40;49.90;;;;;;5053730;28;20202;-63
2021/08/10 10:33:38;;;;;;;2.28;1.70;;;24.40;50.30;;;;;;5053026;28;20253;-63
2021/08/10 10:36:05;;;;;;;2.47;1.95;;;24.50;50.00;;;;;;5053438;28;20632;-62
2021/08/10 10:38:31;;;;;;;2.83;1.83;;;24.40;50.10;;;;;;5052976;28;20252;-62
2021/08/10 10:40:59;;;;;;;2.05;1.85;;;24.40;50.10;;;;;;5046345;28;20249;-67
2021/08/10 10:43:26;;;;;;;3.53;1.60;;;24.40;50.20;;;;;;5051479;28;20221;-53
2021/08/10 10:45:54;;;;;;;2.45;1.90;;;24.50;50.20;;;;;;5051944;28;20251;-56
2021/08/10 10:48:21;;;;;;;2.25;1.67;;;24.50;49.40;;;;;;5053282;28;20289;-60
2021/08/10 10:50:47;;;;;;;3.42;1.60;;;24.50;49.20;;;;;;5057403;28;20490;-59
2021/08/10 10:53:14;;;;;;;3.60;1.90;;;24.50;48.90;;;;;;5054601;28;20275;-61
2021/08/10 10:55:40;;;;;;;2.05;1.85;;;24.60;50.00;;;;;;5054260;28;20290;-61
2021/08/10 10:58:07;;;;;;;2.90;2.15;;;24.60;49.80;;;;;;5052837;28;20241;-56
2021/08/10 11:00:33;;;;;;;4.93;2.40;;;24.60;50.40;;;;;;5053556;28;20229;-62
2021/08/10 11:02:59;;;;;;;3.00;1.90;;;24.60;51.50;;;;;;5052436;28;20769;-61
2021/08/10 11:05:27;;;;;;;2.65;1.90;;;24.60;50.70;;;;;;5061034;28;20269;-61
2021/08/10 11:07:54;;;;;;;2.15;1.95;;;24.70;52.10;;;;;;5051717;28;20201;-59
2021/08/10 11:10:20;;;;;;;3.83;2.00;;;24.70;51.40;;;;;;5056509;28;20237;-57
2021/08/10 11:12:47;;;;;;;2.47;1.65;;;24.70;51.00;;;;;;5053457;28;20263;-55
2021/08/10 11:15:13;;;;;;;4.15;1.80;;;24.60;50.40;;;;;;5053196;28;20289;-60
2021/08/10 11:17:40;;;;;;;3.55;2.47;;;24.60;51.50;;;;;;5042424;28;20914;-59
2021/08/10 11:20:06;;;;;;;2.90;1.90;;;24.60;50.90;;;;;;5050675;28;20255;-58
2021/08/10 11:22:34;;;;;;;3.38;1.75;;;24.60;50.40;;;;;;5051624;28;20698;-58
2021/08/10 11:25:01;;;;;;;5.18;2.00;;;24.60;50.30;;;;;;5049666;28;20202;-58
2021/08/10 11:27:28;;;;;;;2.58;1.85;;;24.60;50.60;;;;;;5053133;28;20206;-58
2021/08/10 11:29:54;;;;;;;4.05;1.92;;;24.60;50.60;;;;;;5051636;28;20226;-58
2021/08/10 11:32:21;;;;;;;2.88;2.15;;;24.60;50.30;;;;;;5051026;28;20663;-58
2021/08/10 11:34:47;;;;;;;2.42;2.17;;;24.60;50.20;;;;;;5050559;28;20226;-58
2021/08/10 11:37:14;;;;;;;2.75;2.10;;;24.60;50.40;;;;;;5051872;28;20237;-58
2021/08/10 11:39:41;;;;;;;3.58;2.10;;;24.60;50.20;;;;;;5051957;28;20714;-57
2021/08/10 11:42:08;;;;;;;4.10;2.10;;;24.60;50.50;;;;;;5052347;28;20260;-59
2021/08/10 11:44:34;;;;;;;2.45;2.20;;;24.60;50.70;;;;;;5052605;28;20241;-58
2021/08/10 11:47:00;;;;;;;2.83;2.20;;;24.60;51.00;;;;;;5050013;28;20288;-59
2021/08/10 11:49:27;;;;;;;3.00;2.25;;;24.60;50.50;;;;;;5051244;28;20264;-58
2021/08/10 11:51:53;;;;;;;3.15;2.00;;;24.60;50.70;;;;;;5050377;28;20309;-58
2021/08/10 11:54:20;;;;;;;4.32;2.30;;;24.60;50.40;;;;;;5052495;28;20229;-58
2021/08/10 11:56:47;;;;;;;5.20;2.50;;;24.60;50.40;;;;;;5053655;28;20197;-58
2021/08/10 11:59:13;;;;;;;3.40;2.17;;;24.60;50.20;;;;;;5050280;28;20283;-58
2021/08/10 12:01:40;;;;;;;2.65;1.95;;;24.60;49.80;;;;;;5051118;28;20262;-58
2021/08/10 12:04:06;;;;;;;3.20;2.08;;;24.60;49.80;;;;;;5052098;28;20213;-56
2021/08/10 12:06:34;;;;;;;3.70;1.80;;;24.60;49.70;;;;;;5039803;28;20234;-60
2021/08/10 12:09:00;;;;;;;3.17;2.45;;;24.60;49.40;;;;;;5037233;28;20198;-56
2021/08/10 12:11:27;;;;;;;3.53;2.08;;;24.60;49.40;;;;;;5034981;28;20225;-57
2021/08/10 12:13:53;;;;;;;2.42;1.95;;;24.60;49.40;;;;;;5051185;28;20256;-58
2021/08/10 12:16:20;;;;;;;2.80;2.25;;;24.60;49.40;;;;;;5046477;28;20202;-58
2021/08/10 12:18:46;;;;;;;3.17;2.20;;;24.60;49.30;;;;;;5040566;28;20689;-57
2021/08/10 12:21:13;;;;;;;2.22;1.98;;;24.60;49.40;;;;;;5052383;28;20257;-57
2021/08/10 12:23:40;;;;;;;2.60;2.05;;;24.60;49.30;;;;;;5052090;28;20194;-58
2021/08/10 12:26:06;;;;;;;2.83;2.20;;;24.60;49.30;;;;;;5050146;28;20335;-56
2021/08/10 12:28:33;;;;;;;2.40;2.20;;;24.60;49.70;;;;;;5048820;28;20289;-56
2021/08/10 12:30:59;;;;;;;2.10;1.90;;;24.60;50.00;;;;;;5051256;28;20324;-57
2021/08/10 12:33:25;;;;;;;3.08;2.17;;;24.60;50.10;;;;;;5050502;28;20254;-56
2021/08/10 12:35:52;;;;;;;3.28;2.35;;;24.70;50.30;;;;;;5050293;28;20545;-56
2021/08/10 12:38:18;;;;;;;2.58;2.13;;;24.60;50.20;;;;;;5048382;28;20288;-55
2021/08/10 12:40:45;;;;;;;3.08;2.25;;;24.60;50.40;;;;;;5032288;28;20266;-56
2021/08/10 12:43:11;;;;;;;2.72;2.28;;;24.60;50.30;;;;;;5043202;28;20289;-55